sensor_id;sensor_type;location;lat;lon;timestamp;P1;durP1;ratioP1;P2;durP2;ratioP2
568;SDS011;269;48.884;9.192;2023-07-24T00:00:48;9.10;;;8.20;;
568;SDS011;269;48.884;9.192;2023-07-24T00:03:15;10.23;;;7.90;;
568;SDS011;269;48.884;9.192;2023-07-24T00:05:42;10.10;;;8.53;;
568;SDS011;269;48.884;9.192;2023-07-24T00:08:09;10.90;;;9.80;;
568;SDS011;269;48.884;9.192;2023-07-24T00:10:37;10.43;;;8.57;;
568;SDS011;269;48.884;9.192;2023-07-24T00:13:04;8.70;;;7.50;;
568;SDS011;269;48.884;9.192;2023-07-24T00:15:31;10.93;;;8.90;;
568;SDS011;269;48.884;9.192;2023-07-24T00:17:57;10.93;;;9.73;;
568;SDS011;269;48.884;9.192;2023-07-24T00:20:24;10.07;;;8.93;;
568;SDS011;269;48.884;9.192;2023-07-24T00:22:51;10.40;;;9.40;;
568;SDS011;269;48.884;9.192;2023-07-24T00:25:18;10.60;;;9.37;;
568;SDS011;269;48.884;9.192;2023-07-24T00:27:46;10.53;;;9.53;;
568;SDS011;269;48.884;9.192;2023-07-24T00:30:13;9.70;;;8.80;;
568;SDS011;269;48.884;9.192;2023-07-24T00:32:40;9.80;;;8.90;;
568;SDS011;269;48.884;9.192;2023-07-24T00:35:07;9.73;;;8.77;;
568;SDS011;269;48.884;9.192;2023-07-24T00:37:34;9.97;;;8.97;;
568;SDS011;269;48.884;9.192;2023-07-24T00:40:01;9.97;;;8.93;;
568;SDS011;269;48.884;9.192;2023-07-24T00:42:28;10.43;;;9.33;;
568;SDS011;269;48.884;9.192;2023-07-24T00:44:56;10.10;;;9.10;;
568;SDS011;269;48.884;9.192;2023-07-24T00:47:23;10.63;;;9.53;;
568;SDS011;269;48.884;9.192;2023-07-24T00:49:52;14.00;;;10.00;;
568;SDS011;269;48.884;9.192;2023-07-24T00:52:19;10.60;;;9.60;;
568;SDS011;269;48.884;9.192;2023-07-24T00:54:46;10.70;;;9.67;;
568;SDS011;269;48.884;9.192;2023-07-24T00:57:13;10.70;;;9.07;;
568;SDS011;269;48.884;9.192;2023-07-24T00:59:41;11.60;;;9.63;;
568;SDS011;269;48.884;9.192;2023-07-24T01:02:09;9.83;;;8.93;;
568;SDS011;269;48.884;9.192;2023-07-24T01:04:37;11.33;;;9.53;;
568;SDS011;269;48.884;9.192;2023-07-24T01:07:04;10.30;;;9.30;;
568;SDS011;269;48.884;9.192;2023-07-24T01:09:31;9.80;;;8.80;;
568;SDS011;269;48.884;9.192;2023-07-24T01:11:59;11.10;;;9.90;;
568;SDS011;269;48.884;9.192;2023-07-24T01:14:36;10.23;;;9.23;;
568;SDS011;269;48.884;9.192;2023-07-24T01:17:07;12.57;;;9.97;;
568;SDS011;269;48.884;9.192;2023-07-24T01:19:37;12.00;;;9.63;;
568;SDS011;269;48.884;9.192;2023-07-24T01:22:10;11.50;;;9.57;;
568;SDS011;269;48.884;9.192;2023-07-24T01:24:43;10.83;;;9.73;;
568;SDS011;269;48.884;9.192;2023-07-24T01:27:19;11.00;;;9.90;;
568;SDS011;269;48.884;9.192;2023-07-24T01:29:47;10.77;;;9.67;;
568;SDS011;269;48.884;9.192;2023-07-24T01:32:13;9.77;;;8.77;;
568;SDS011;269;48.884;9.192;2023-07-24T01:34:40;9.60;;;8.70;;
568;SDS011;269;48.884;9.192;2023-07-24T01:37:07;12.30;;;9.37;;
568;SDS011;269;48.884;9.192;2023-07-24T01:39:35;10.33;;;9.23;;
568;SDS011;269;48.884;9.192;2023-07-24T01:42:03;9.70;;;8.70;;
568;SDS011;269;48.884;9.192;2023-07-24T01:44:32;9.57;;;8.57;;
568;SDS011;269;48.884;9.192;2023-07-24T01:46:59;10.77;;;9.57;;
568;SDS011;269;48.884;9.192;2023-07-24T01:49:26;10.37;;;9.20;;
568;SDS011;269;48.884;9.192;2023-07-24T01:51:53;10.00;;;8.47;;
568;SDS011;269;48.884;9.192;2023-07-24T01:54:19;10.57;;;8.87;;
568;SDS011;269;48.884;9.192;2023-07-24T01:56:46;9.17;;;8.23;;
568;SDS011;269;48.884;9.192;2023-07-24T01:59:13;9.90;;;8.90;;
568;SDS011;269;48.884;9.192;2023-07-24T02:01:41;10.30;;;9.20;;
568;SDS011;269;48.884;9.192;2023-07-24T02:04:08;9.63;;;8.70;;
568;SDS011;269;48.884;9.192;2023-07-24T02:06:35;9.77;;;8.53;;
568;SDS011;269;48.884;9.192;2023-07-24T02:09:01;9.53;;;8.53;;
568;SDS011;269;48.884;9.192;2023-07-24T02:11:28;9.37;;;8.40;;
568;SDS011;269;48.884;9.192;2023-07-24T02:13:55;9.17;;;8.27;;
568;SDS011;269;48.884;9.192;2023-07-24T02:16:22;10.20;;;9.20;;
568;SDS011;269;48.884;9.192;2023-07-24T02:18:50;10.50;;;9.40;;
568;SDS011;269;48.884;9.192;2023-07-24T02:21:17;10.40;;;9.13;;
568;SDS011;269;48.884;9.192;2023-07-24T02:23:43;9.53;;;8.63;;
568;SDS011;269;48.884;9.192;2023-07-24T02:26:10;9.70;;;8.80;;
568;SDS011;269;48.884;9.192;2023-07-24T02:28:37;9.63;;;8.63;;
568;SDS011;269;48.884;9.192;2023-07-24T02:31:04;9.80;;;8.80;;
568;SDS011;269;48.884;9.192;2023-07-24T02:33:30;8.90;;;8.00;;
568;SDS011;269;48.884;9.192;2023-07-24T02:36:00;8.70;;;7.90;;
568;SDS011;269;48.884;9.192;2023-07-24T02:38:27;9.17;;;8.27;;
568;SDS011;269;48.884;9.192;2023-07-24T02:40:54;9.20;;;8.40;;
568;SDS011;269;48.884;9.192;2023-07-24T02:43:21;10.13;;;8.80;;
568;SDS011;269;48.884;9.192;2023-07-24T02:45:48;9.60;;;8.70;;
568;SDS011;269;48.884;9.192;2023-07-24T02:48:15;10.03;;;9.03;;
568;SDS011;269;48.884;9.192;2023-07-24T02:50:42;8.83;;;7.93;;
568;SDS011;269;48.884;9.192;2023-07-24T02:53:10;9.70;;;8.70;;
568;SDS011;269;48.884;9.192;2023-07-24T02:55:36;9.00;;;8.10;;
568;SDS011;269;48.884;9.192;2023-07-24T02:58:03;10.27;;;9.27;;
568;SDS011;269;48.884;9.192;2023-07-24T03:00:31;10.23;;;9.23;;
568;SDS011;269;48.884;9.192;2023-07-24T03:02:57;9.33;;;8.43;;
568;SDS011;269;48.884;9.192;2023-07-24T03:05:25;9.00;;;8.20;;
568;SDS011;269;48.884;9.192;2023-07-24T03:07:51;9.70;;;8.70;;
568;SDS011;269;48.884;9.192;2023-07-24T03:10:19;10.00;;;9.00;;
568;SDS011;269;48.884;9.192;2023-07-24T03:12:46;9.67;;;8.70;;
568;SDS011;269;48.884;9.192;2023-07-24T03:15:13;11.00;;;8.97;;
568;SDS011;269;48.884;9.192;2023-07-24T03:17:40;9.23;;;8.37;;
568;SDS011;269;48.884;9.192;2023-07-24T03:20:13;9.10;;;8.20;;
568;SDS011;269;48.884;9.192;2023-07-24T03:22:41;9.67;;;8.67;;
568;SDS011;269;48.884;9.192;2023-07-24T03:25:08;9.50;;;8.50;;
568;SDS011;269;48.884;9.192;2023-07-24T03:27:36;9.50;;;8.60;;
568;SDS011;269;48.884;9.192;2023-07-24T03:30:03;9.90;;;8.40;;
568;SDS011;269;48.884;9.192;2023-07-24T03:32:31;9.20;;;8.30;;
568;SDS011;269;48.884;9.192;2023-07-24T03:34:58;8.20;;;7.50;;
568;SDS011;269;48.884;9.192;2023-07-24T03:37:25;9.73;;;8.80;;
568;SDS011;269;48.884;9.192;2023-07-24T03:39:51;9.20;;;8.30;;
568;SDS011;269;48.884;9.192;2023-07-24T03:42:25;9.07;;;8.17;;
568;SDS011;269;48.884;9.192;2023-07-24T03:44:54;8.73;;;7.90;;
568;SDS011;269;48.884;9.192;2023-07-24T03:47:21;8.97;;;8.07;;
568;SDS011;269;48.884;9.192;2023-07-24T03:49:48;8.63;;;7.83;;
568;SDS011;269;48.884;9.192;2023-07-24T03:52:15;10.13;;;8.73;;
568;SDS011;269;48.884;9.192;2023-07-24T03:54:42;10.07;;;8.97;;
568;SDS011;269;48.884;9.192;2023-07-24T03:57:08;9.30;;;8.37;;
568;SDS011;269;48.884;9.192;2023-07-24T03:59:35;9.10;;;8.20;;
568;SDS011;269;48.884;9.192;2023-07-24T04:02:04;9.90;;;7.83;;
568;SDS011;269;48.884;9.192;2023-07-24T04:04:31;8.47;;;7.67;;
568;SDS011;269;48.884;9.192;2023-07-24T04:06:58;9.13;;;8.23;;
568;SDS011;269;48.884;9.192;2023-07-24T04:09:25;9.67;;;8.53;;
568;SDS011;269;48.884;9.192;2023-07-24T04:11:52;8.87;;;7.97;;
568;SDS011;269;48.884;9.192;2023-07-24T04:14:19;8.90;;;7.93;;
568;SDS011;269;48.884;9.192;2023-07-24T04:16:45;9.03;;;7.70;;
568;SDS011;269;48.884;9.192;2023-07-24T04:19:13;8.87;;;8.00;;
568;SDS011;269;48.884;9.192;2023-07-24T04:21:40;9.33;;;8.43;;
568;SDS011;269;48.884;9.192;2023-07-24T04:24:09;9.00;;;8.10;;
568;SDS011;269;48.884;9.192;2023-07-24T04:26:35;8.80;;;7.97;;
568;SDS011;269;48.884;9.192;2023-07-24T04:29:02;10.07;;;9.00;;
568;SDS011;269;48.884;9.192;2023-07-24T04:31:29;9.37;;;7.93;;
568;SDS011;269;48.884;9.192;2023-07-24T04:33:56;11.53;;;8.00;;
568;SDS011;269;48.884;9.192;2023-07-24T04:36:24;8.70;;;7.90;;
568;SDS011;269;48.884;9.192;2023-07-24T04:38:51;8.27;;;7.47;;
568;SDS011;269;48.884;9.192;2023-07-24T04:41:18;9.83;;;8.80;;
568;SDS011;269;48.884;9.192;2023-07-24T04:43:45;9.93;;;8.47;;
568;SDS011;269;48.884;9.192;2023-07-24T04:46:12;9.33;;;8.43;;
568;SDS011;269;48.884;9.192;2023-07-24T04:48:39;8.80;;;7.93;;
568;SDS011;269;48.884;9.192;2023-07-24T04:51:06;10.53;;;8.20;;
568;SDS011;269;48.884;9.192;2023-07-24T04:53:34;9.23;;;8.33;;
568;SDS011;269;48.884;9.192;2023-07-24T04:56:01;10.77;;;9.77;;
568;SDS011;269;48.884;9.192;2023-07-24T04:58:28;10.33;;;8.90;;
568;SDS011;269;48.884;9.192;2023-07-24T05:00:55;11.47;;;9.13;;
568;SDS011;269;48.884;9.192;2023-07-24T05:03:30;10.13;;;9.13;;
568;SDS011;269;48.884;9.192;2023-07-24T05:05:59;8.83;;;7.93;;
568;SDS011;269;48.884;9.192;2023-07-24T05:08:30;10.73;;;8.80;;
568;SDS011;269;48.884;9.192;2023-07-24T05:10:58;10.00;;;8.50;;
568;SDS011;269;48.884;9.192;2023-07-24T05:13:25;9.40;;;8.40;;
568;SDS011;269;48.884;9.192;2023-07-24T05:15:53;8.73;;;7.93;;
568;SDS011;269;48.884;9.192;2023-07-24T05:18:20;9.00;;;8.10;;
568;SDS011;269;48.884;9.192;2023-07-24T05:20:48;9.33;;;8.43;;
568;SDS011;269;48.884;9.192;2023-07-24T05:23:16;9.00;;;8.07;;
568;SDS011;269;48.884;9.192;2023-07-24T05:25:43;9.70;;;8.53;;
568;SDS011;269;48.884;9.192;2023-07-24T05:28:11;9.77;;;7.97;;
568;SDS011;269;48.884;9.192;2023-07-24T05:30:40;10.10;;;9.10;;
568;SDS011;269;48.884;9.192;2023-07-24T05:33:08;9.57;;;8.07;;
568;SDS011;269;48.884;9.192;2023-07-24T05:35:35;9.27;;;8.37;;
568;SDS011;269;48.884;9.192;2023-07-24T05:38:01;9.83;;;8.83;;
568;SDS011;269;48.884;9.192;2023-07-24T05:40:28;11.37;;;9.23;;
568;SDS011;269;48.884;9.192;2023-07-24T05:42:55;11.03;;;9.27;;
568;SDS011;269;48.884;9.192;2023-07-24T05:45:23;10.20;;;9.10;;
568;SDS011;269;48.884;9.192;2023-07-24T05:47:50;10.17;;;9.00;;
568;SDS011;269;48.884;9.192;2023-07-24T05:50:17;8.50;;;7.80;;
568;SDS011;269;48.884;9.192;2023-07-24T05:52:43;9.10;;;8.20;;
568;SDS011;269;48.884;9.192;2023-07-24T05:55:10;9.00;;;8.10;;
568;SDS011;269;48.884;9.192;2023-07-24T05:57:37;8.87;;;7.97;;
568;SDS011;269;48.884;9.192;2023-07-24T06:00:04;10.70;;;9.60;;
568;SDS011;269;48.884;9.192;2023-07-24T06:02:34;9.70;;;8.50;;
568;SDS011;269;48.884;9.192;2023-07-24T06:05:00;9.73;;;8.73;;
568;SDS011;269;48.884;9.192;2023-07-24T06:07:27;10.10;;;9.10;;
568;SDS011;269;48.884;9.192;2023-07-24T06:09:54;11.33;;;9.90;;
568;SDS011;269;48.884;9.192;2023-07-24T06:12:21;11.27;;;9.93;;
568;SDS011;269;48.884;9.192;2023-07-24T06:14:48;11.47;;;10.27;;
568;SDS011;269;48.884;9.192;2023-07-24T06:17:15;10.30;;;9.20;;
568;SDS011;269;48.884;9.192;2023-07-24T06:19:43;10.23;;;9.17;;
568;SDS011;269;48.884;9.192;2023-07-24T06:22:09;13.20;;;9.20;;
568;SDS011;269;48.884;9.192;2023-07-24T06:24:36;10.93;;;9.30;;
568;SDS011;269;48.884;9.192;2023-07-24T06:27:03;10.63;;;8.73;;
568;SDS011;269;48.884;9.192;2023-07-24T06:29:31;10.40;;;9.20;;
568;SDS011;269;48.884;9.192;2023-07-24T06:31:59;11.63;;;10.00;;
568;SDS011;269;48.884;9.192;2023-07-24T06:34:25;9.73;;;8.73;;
568;SDS011;269;48.884;9.192;2023-07-24T06:36:53;11.20;;;10.13;;
568;SDS011;269;48.884;9.192;2023-07-24T06:39:21;10.90;;;9.63;;
568;SDS011;269;48.884;9.192;2023-07-24T06:41:47;10.47;;;9.40;;
568;SDS011;269;48.884;9.192;2023-07-24T06:44:16;10.43;;;9.43;;
568;SDS011;269;48.884;9.192;2023-07-24T06:46:43;14.40;;;9.37;;
568;SDS011;269;48.884;9.192;2023-07-24T06:49:10;12.70;;;10.10;;
568;SDS011;269;48.884;9.192;2023-07-24T06:51:37;10.17;;;9.17;;
568;SDS011;269;48.884;9.192;2023-07-24T06:54:06;11.27;;;10.03;;
568;SDS011;269;48.884;9.192;2023-07-24T06:56:33;10.63;;;9.60;;
568;SDS011;269;48.884;9.192;2023-07-24T06:58:59;11.47;;;9.80;;
568;SDS011;269;48.884;9.192;2023-07-24T07:01:27;9.53;;;8.50;;
568;SDS011;269;48.884;9.192;2023-07-24T07:03:53;10.90;;;9.80;;
568;SDS011;269;48.884;9.192;2023-07-24T07:06:20;12.53;;;9.43;;
568;SDS011;269;48.884;9.192;2023-07-24T07:08:47;12.97;;;9.70;;
568;SDS011;269;48.884;9.192;2023-07-24T07:11:15;9.60;;;8.60;;
568;SDS011;269;48.884;9.192;2023-07-24T07:13:42;12.10;;;10.77;;
568;SDS011;269;48.884;9.192;2023-07-24T07:16:09;10.30;;;9.27;;
568;SDS011;269;48.884;9.192;2023-07-24T07:18:36;10.17;;;9.10;;
568;SDS011;269;48.884;9.192;2023-07-24T07:21:03;11.63;;;10.23;;
568;SDS011;269;48.884;9.192;2023-07-24T07:23:31;12.47;;;9.30;;
568;SDS011;269;48.884;9.192;2023-07-24T07:26:00;14.53;;;10.20;;
568;SDS011;269;48.884;9.192;2023-07-24T07:28:28;11.50;;;9.47;;
568;SDS011;269;48.884;9.192;2023-07-24T07:30:55;9.83;;;8.80;;
568;SDS011;269;48.884;9.192;2023-07-24T07:33:22;11.30;;;9.47;;
568;SDS011;269;48.884;9.192;2023-07-24T07:35:50;10.07;;;9.07;;
568;SDS011;269;48.884;9.192;2023-07-24T07:38:17;12.93;;;9.80;;
568;SDS011;269;48.884;9.192;2023-07-24T07:40:44;11.87;;;9.57;;
568;SDS011;269;48.884;9.192;2023-07-24T07:43:10;9.73;;;8.73;;
568;SDS011;269;48.884;9.192;2023-07-24T07:45:39;10.07;;;9.07;;
568;SDS011;269;48.884;9.192;2023-07-24T07:48:05;9.63;;;8.73;;
568;SDS011;269;48.884;9.192;2023-07-24T07:50:32;9.57;;;8.60;;
568;SDS011;269;48.884;9.192;2023-07-24T07:52:59;9.70;;;8.70;;
568;SDS011;269;48.884;9.192;2023-07-24T07:55:26;12.20;;;9.30;;
568;SDS011;269;48.884;9.192;2023-07-24T07:57:52;10.20;;;9.20;;
568;SDS011;269;48.884;9.192;2023-07-24T08:00:20;9.50;;;8.50;;
568;SDS011;269;48.884;9.192;2023-07-24T08:02:48;10.20;;;9.20;;
568;SDS011;269;48.884;9.192;2023-07-24T08:05:15;11.90;;;9.00;;
568;SDS011;269;48.884;9.192;2023-07-24T08:07:42;10.03;;;9.13;;
568;SDS011;269;48.884;9.192;2023-07-24T08:10:09;10.10;;;8.33;;
568;SDS011;269;48.884;9.192;2023-07-24T08:12:35;9.70;;;8.23;;
568;SDS011;269;48.884;9.192;2023-07-24T08:15:03;9.10;;;8.20;;
568;SDS011;269;48.884;9.192;2023-07-24T08:17:30;9.93;;;8.97;;
568;SDS011;269;48.884;9.192;2023-07-24T08:19:58;9.67;;;8.77;;
568;SDS011;269;48.884;9.192;2023-07-24T08:22:25;8.80;;;8.00;;
568;SDS011;269;48.884;9.192;2023-07-24T08:24:52;9.60;;;8.27;;
568;SDS011;269;48.884;9.192;2023-07-24T08:27:19;10.27;;;9.27;;
568;SDS011;269;48.884;9.192;2023-07-24T08:29:46;8.80;;;8.00;;
568;SDS011;269;48.884;9.192;2023-07-24T08:32:13;11.87;;;8.70;;
568;SDS011;269;48.884;9.192;2023-07-24T08:34:39;10.20;;;9.10;;
568;SDS011;269;48.884;9.192;2023-07-24T08:37:08;9.80;;;8.80;;
568;SDS011;269;48.884;9.192;2023-07-24T08:39:35;10.30;;;9.00;;
568;SDS011;269;48.884;9.192;2023-07-24T08:42:07;10.10;;;9.13;;
568;SDS011;269;48.884;9.192;2023-07-24T08:44:35;10.90;;;9.43;;
568;SDS011;269;48.884;9.192;2023-07-24T08:47:03;10.30;;;9.30;;
568;SDS011;269;48.884;9.192;2023-07-24T08:49:31;10.23;;;9.00;;
568;SDS011;269;48.884;9.192;2023-07-24T08:51:59;10.30;;;9.40;;
568;SDS011;269;48.884;9.192;2023-07-24T08:54:28;10.40;;;9.50;;
568;SDS011;269;48.884;9.192;2023-07-24T08:56:56;11.93;;;9.30;;
568;SDS011;269;48.884;9.192;2023-07-24T08:59:23;10.77;;;9.77;;
568;SDS011;269;48.884;9.192;2023-07-24T09:01:50;11.30;;;9.83;;
568;SDS011;269;48.884;9.192;2023-07-24T09:04:17;11.37;;;9.57;;
568;SDS011;269;48.884;9.192;2023-07-24T09:06:44;11.17;;;10.10;;
568;SDS011;269;48.884;9.192;2023-07-24T09:09:12;11.50;;;10.37;;
568;SDS011;269;48.884;9.192;2023-07-24T09:11:46;11.57;;;10.20;;
568;SDS011;269;48.884;9.192;2023-07-24T09:14:19;11.23;;;10.10;;
568;SDS011;269;48.884;9.192;2023-07-24T09:16:47;11.80;;;10.70;;
568;SDS011;269;48.884;9.192;2023-07-24T09:19:17;10.57;;;9.57;;
568;SDS011;269;48.884;9.192;2023-07-24T09:21:44;11.37;;;9.67;;
568;SDS011;269;48.884;9.192;2023-07-24T09:24:12;10.60;;;9.50;;
568;SDS011;269;48.884;9.192;2023-07-24T09:26:50;9.77;;;8.10;;
568;SDS011;269;48.884;9.192;2023-07-24T09:29:18;10.07;;;9.17;;
568;SDS011;269;48.884;9.192;2023-07-24T09:31:45;10.30;;;9.23;;
568;SDS011;269;48.884;9.192;2023-07-24T09:34:16;10.20;;;9.30;;
568;SDS011;269;48.884;9.192;2023-07-24T09:36:43;9.90;;;8.97;;
568;SDS011;269;48.884;9.192;2023-07-24T09:39:10;9.63;;;8.70;;
568;SDS011;269;48.884;9.192;2023-07-24T09:41:38;10.10;;;9.10;;
568;SDS011;269;48.884;9.192;2023-07-24T09:44:07;9.70;;;8.70;;
568;SDS011;269;48.884;9.192;2023-07-24T09:46:34;10.33;;;9.30;;
568;SDS011;269;48.884;9.192;2023-07-24T09:49:01;9.03;;;8.17;;
568;SDS011;269;48.884;9.192;2023-07-24T09:51:29;8.47;;;7.70;;
568;SDS011;269;48.884;9.192;2023-07-24T09:53:58;9.80;;;8.70;;
568;SDS011;269;48.884;9.192;2023-07-24T09:56:28;9.60;;;8.60;;
568;SDS011;269;48.884;9.192;2023-07-24T09:58:57;8.93;;;8.00;;
568;SDS011;269;48.884;9.192;2023-07-24T10:01:26;8.77;;;7.97;;
568;SDS011;269;48.884;9.192;2023-07-24T10:03:53;10.53;;;9.53;;
568;SDS011;269;48.884;9.192;2023-07-24T10:06:20;10.10;;;8.90;;
568;SDS011;269;48.884;9.192;2023-07-24T10:08:47;9.03;;;8.23;;
568;SDS011;269;48.884;9.192;2023-07-24T10:11:14;8.60;;;7.80;;
568;SDS011;269;48.884;9.192;2023-07-24T10:13:41;8.10;;;7.40;;
568;SDS011;269;48.884;9.192;2023-07-24T10:16:08;7.97;;;7.27;;
568;SDS011;269;48.884;9.192;2023-07-24T10:18:41;8.70;;;8.00;;
568;SDS011;269;48.884;9.192;2023-07-24T10:21:10;9.03;;;8.20;;
568;SDS011;269;48.884;9.192;2023-07-24T10:23:40;8.17;;;7.47;;
568;SDS011;269;48.884;9.192;2023-07-24T10:26:08;10.07;;;7.67;;
568;SDS011;269;48.884;9.192;2023-07-24T10:28:36;8.97;;;8.10;;
568;SDS011;269;48.884;9.192;2023-07-24T10:31:05;8.50;;;7.60;;
568;SDS011;269;48.884;9.192;2023-07-24T10:33:35;9.10;;;7.47;;
568;SDS011;269;48.884;9.192;2023-07-24T10:36:10;8.80;;;7.90;;
568;SDS011;269;48.884;9.192;2023-07-24T10:38:40;8.10;;;7.10;;
568;SDS011;269;48.884;9.192;2023-07-24T10:41:08;7.00;;;6.33;;
568;SDS011;269;48.884;9.192;2023-07-24T10:43:45;8.23;;;7.53;;
568;SDS011;269;48.884;9.192;2023-07-24T10:46:13;8.20;;;7.40;;
568;SDS011;269;48.884;9.192;2023-07-24T10:48:43;7.93;;;7.17;;
568;SDS011;269;48.884;9.192;2023-07-24T10:51:11;8.37;;;7.67;;
568;SDS011;269;48.884;9.192;2023-07-24T10:53:41;8.00;;;7.20;;
568;SDS011;269;48.884;9.192;2023-07-24T10:56:10;8.80;;;7.40;;
568;SDS011;269;48.884;9.192;2023-07-24T10:58:37;9.50;;;8.60;;
568;SDS011;269;48.884;9.192;2023-07-24T11:01:04;9.23;;;8.27;;
568;SDS011;269;48.884;9.192;2023-07-24T11:03:32;9.93;;;7.97;;
568;SDS011;269;48.884;9.192;2023-07-24T11:06:00;8.70;;;7.90;;
568;SDS011;269;48.884;9.192;2023-07-24T11:08:28;9.07;;;8.27;;
568;SDS011;269;48.884;9.192;2023-07-24T11:10:55;10.70;;;9.70;;
568;SDS011;269;48.884;9.192;2023-07-24T11:13:24;9.23;;;8.40;;
568;SDS011;269;48.884;9.192;2023-07-24T11:15:51;9.50;;;8.67;;
568;SDS011;269;48.884;9.192;2023-07-24T11:18:19;10.80;;;9.10;;
568;SDS011;269;48.884;9.192;2023-07-24T11:20:50;10.40;;;9.37;;
568;SDS011;269;48.884;9.192;2023-07-24T11:23:19;9.93;;;9.03;;
568;SDS011;269;48.884;9.192;2023-07-24T11:25:46;10.60;;;9.40;;
568;SDS011;269;48.884;9.192;2023-07-24T11:28:13;10.47;;;9.47;;
568;SDS011;269;48.884;9.192;2023-07-24T11:30:41;10.20;;;9.20;;
568;SDS011;269;48.884;9.192;2023-07-24T11:33:09;10.57;;;9.50;;
568;SDS011;269;48.884;9.192;2023-07-24T11:35:37;10.37;;;9.37;;
568;SDS011;269;48.884;9.192;2023-07-24T11:38:05;11.73;;;9.73;;
568;SDS011;269;48.884;9.192;2023-07-24T11:40:34;9.90;;;9.00;;
568;SDS011;269;48.884;9.192;2023-07-24T11:43:02;9.00;;;8.20;;
568;SDS011;269;48.884;9.192;2023-07-24T11:45:30;9.90;;;8.90;;
568;SDS011;269;48.884;9.192;2023-07-24T11:47:57;9.77;;;8.80;;
568;SDS011;269;48.884;9.192;2023-07-24T11:50:23;10.07;;;9.07;;
568;SDS011;269;48.884;9.192;2023-07-24T11:52:51;10.53;;;8.30;;
568;SDS011;269;48.884;9.192;2023-07-24T11:55:19;8.20;;;7.47;;
568;SDS011;269;48.884;9.192;2023-07-24T11:57:59;8.47;;;7.67;;
568;SDS011;269;48.884;9.192;2023-07-24T12:00:27;9.43;;;8.53;;
568;SDS011;269;48.884;9.192;2023-07-24T12:02:58;7.30;;;6.70;;
568;SDS011;269;48.884;9.192;2023-07-24T12:05:25;7.63;;;6.93;;
568;SDS011;269;48.884;9.192;2023-07-24T12:07:53;7.63;;;6.90;;
568;SDS011;269;48.884;9.192;2023-07-24T12:10:24;7.90;;;7.10;;
568;SDS011;269;48.884;9.192;2023-07-24T12:12:53;7.60;;;6.90;;
568;SDS011;269;48.884;9.192;2023-07-24T12:15:22;7.23;;;6.53;;
568;SDS011;269;48.884;9.192;2023-07-24T12:17:48;7.80;;;7.10;;
568;SDS011;269;48.884;9.192;2023-07-24T12:20:15;8.03;;;7.30;;
568;SDS011;269;48.884;9.192;2023-07-24T12:22:42;8.70;;;7.97;;
568;SDS011;269;48.884;9.192;2023-07-24T12:25:09;7.73;;;7.13;;
568;SDS011;269;48.884;9.192;2023-07-24T12:27:36;7.80;;;7.00;;
568;SDS011;269;48.884;9.192;2023-07-24T12:30:05;7.70;;;7.10;;
568;SDS011;269;48.884;9.192;2023-07-24T12:32:34;7.40;;;6.60;;
568;SDS011;269;48.884;9.192;2023-07-24T12:35:03;8.40;;;7.60;;
568;SDS011;269;48.884;9.192;2023-07-24T12:37:38;8.00;;;7.30;;
568;SDS011;269;48.884;9.192;2023-07-24T12:40:06;8.43;;;7.70;;
568;SDS011;269;48.884;9.192;2023-07-24T12:42:33;7.00;;;6.40;;
568;SDS011;269;48.884;9.192;2023-07-24T12:45:00;7.80;;;7.10;;
568;SDS011;269;48.884;9.192;2023-07-24T12:47:29;8.23;;;7.47;;
568;SDS011;269;48.884;9.192;2023-07-24T12:49:58;8.77;;;7.97;;
568;SDS011;269;48.884;9.192;2023-07-24T12:52:25;9.53;;;8.63;;
568;SDS011;269;48.884;9.192;2023-07-24T12:54:52;7.87;;;7.10;;
568;SDS011;269;48.884;9.192;2023-07-24T12:57:19;8.30;;;7.50;;
568;SDS011;269;48.884;9.192;2023-07-24T12:59:46;8.33;;;7.63;;
568;SDS011;269;48.884;9.192;2023-07-24T13:02:13;9.07;;;8.27;;
568;SDS011;269;48.884;9.192;2023-07-24T13:04:40;8.70;;;7.97;;
568;SDS011;269;48.884;9.192;2023-07-24T13:07:08;7.57;;;6.97;;
568;SDS011;269;48.884;9.192;2023-07-24T13:09:35;7.80;;;7.20;;
568;SDS011;269;48.884;9.192;2023-07-24T13:12:01;7.80;;;7.20;;
568;SDS011;269;48.884;9.192;2023-07-24T13:14:29;8.70;;;7.90;;
568;SDS011;269;48.884;9.192;2023-07-24T13:16:56;8.17;;;7.40;;
568;SDS011;269;48.884;9.192;2023-07-24T13:19:23;8.00;;;7.30;;
568;SDS011;269;48.884;9.192;2023-07-24T13:21:49;7.07;;;6.47;;
568;SDS011;269;48.884;9.192;2023-07-24T13:24:18;8.30;;;7.03;;
568;SDS011;269;48.884;9.192;2023-07-24T13:26:44;7.40;;;6.70;;
568;SDS011;269;48.884;9.192;2023-07-24T13:29:13;8.40;;;7.70;;
568;SDS011;269;48.884;9.192;2023-07-24T13:31:40;7.63;;;6.93;;
568;SDS011;269;48.884;9.192;2023-07-24T13:34:07;9.17;;;8.27;;
568;SDS011;269;48.884;9.192;2023-07-24T13:36:36;9.10;;;8.40;;
568;SDS011;269;48.884;9.192;2023-07-24T13:39:03;8.57;;;7.77;;
568;SDS011;269;48.884;9.192;2023-07-24T13:41:31;9.77;;;8.87;;
568;SDS011;269;48.884;9.192;2023-07-24T13:43:58;7.73;;;7.03;;
568;SDS011;269;48.884;9.192;2023-07-24T13:46:25;8.47;;;7.43;;
568;SDS011;269;48.884;9.192;2023-07-24T13:48:52;7.80;;;7.10;;
568;SDS011;269;48.884;9.192;2023-07-24T13:51:18;7.80;;;7.10;;
568;SDS011;269;48.884;9.192;2023-07-24T13:53:45;8.13;;;7.43;;
568;SDS011;269;48.884;9.192;2023-07-24T13:56:13;8.00;;;7.30;;
568;SDS011;269;48.884;9.192;2023-07-24T13:58:41;8.43;;;7.63;;
568;SDS011;269;48.884;9.192;2023-07-24T14:01:08;7.33;;;6.73;;
568;SDS011;269;48.884;9.192;2023-07-24T14:03:35;8.67;;;7.63;;
568;SDS011;269;48.884;9.192;2023-07-24T14:06:02;7.70;;;7.00;;
568;SDS011;269;48.884;9.192;2023-07-24T14:08:29;7.90;;;7.20;;
568;SDS011;269;48.884;9.192;2023-07-24T14:10:56;6.70;;;6.10;;
568;SDS011;269;48.884;9.192;2023-07-24T14:13:23;6.73;;;6.23;;
568;SDS011;269;48.884;9.192;2023-07-24T14:15:52;7.37;;;6.77;;
568;SDS011;269;48.884;9.192;2023-07-24T14:18:19;6.60;;;5.90;;
568;SDS011;269;48.884;9.192;2023-07-24T14:20:46;6.97;;;6.43;;
568;SDS011;269;48.884;9.192;2023-07-24T14:23:13;7.17;;;6.37;;
568;SDS011;269;48.884;9.192;2023-07-24T14:25:40;6.87;;;6.17;;
568;SDS011;269;48.884;9.192;2023-07-24T14:28:07;7.07;;;6.47;;
568;SDS011;269;48.884;9.192;2023-07-24T14:30:34;7.10;;;6.40;;
568;SDS011;269;48.884;9.192;2023-07-24T14:33:02;7.00;;;6.00;;
568;SDS011;269;48.884;9.192;2023-07-24T14:35:28;7.23;;;6.63;;
568;SDS011;269;48.884;9.192;2023-07-24T14:37:55;6.57;;;5.97;;
568;SDS011;269;48.884;9.192;2023-07-24T14:40:22;5.97;;;5.47;;
568;SDS011;269;48.884;9.192;2023-07-24T14:42:49;5.30;;;4.80;;
568;SDS011;269;48.884;9.192;2023-07-24T14:45:16;5.73;;;5.13;;
568;SDS011;269;48.884;9.192;2023-07-24T14:47:42;5.40;;;4.90;;
568;SDS011;269;48.884;9.192;2023-07-24T14:50:11;5.73;;;5.23;;
568;SDS011;269;48.884;9.192;2023-07-24T14:52:38;5.10;;;4.70;;
568;SDS011;269;48.884;9.192;2023-07-24T14:55:04;5.80;;;5.40;;
568;SDS011;269;48.884;9.192;2023-07-24T14:57:32;5.03;;;4.63;;
568;SDS011;269;48.884;9.192;2023-07-24T14:59:59;5.23;;;4.73;;
568;SDS011;269;48.884;9.192;2023-07-24T15:02:26;5.03;;;4.53;;
568;SDS011;269;48.884;9.192;2023-07-24T15:04:52;4.80;;;4.37;;
568;SDS011;269;48.884;9.192;2023-07-24T15:07:21;5.30;;;4.80;;
568;SDS011;269;48.884;9.192;2023-07-24T15:09:47;4.83;;;4.33;;
568;SDS011;269;48.884;9.192;2023-07-24T15:12:14;5.10;;;4.70;;
568;SDS011;269;48.884;9.192;2023-07-24T15:14:41;5.50;;;5.07;;
568;SDS011;269;48.884;9.192;2023-07-24T15:17:08;5.20;;;4.77;;
568;SDS011;269;48.884;9.192;2023-07-24T15:19:34;5.20;;;4.80;;
568;SDS011;269;48.884;9.192;2023-07-24T15:22:01;5.33;;;4.90;;
568;SDS011;269;48.884;9.192;2023-07-24T15:24:29;5.00;;;4.60;;
568;SDS011;269;48.884;9.192;2023-07-24T15:26:56;4.87;;;4.17;;
568;SDS011;269;48.884;9.192;2023-07-24T15:29:23;4.93;;;4.53;;
568;SDS011;269;48.884;9.192;2023-07-24T15:31:50;4.70;;;4.30;;
568;SDS011;269;48.884;9.192;2023-07-24T15:34:16;4.90;;;4.47;;
568;SDS011;269;48.884;9.192;2023-07-24T15:36:43;4.97;;;4.53;;
568;SDS011;269;48.884;9.192;2023-07-24T15:39:10;4.67;;;4.27;;
568;SDS011;269;48.884;9.192;2023-07-24T15:41:38;5.47;;;5.00;;